sensor_id;sensor_type;location;lat;lon;timestamp;temperature;humidity
21883;DHT22;11106;47.864;13.054;2023-02-28T07:08:39;-1.70;99.90
21883;DHT22;11106;47.864;13.054;2023-02-28T07:23:43;4.90;99.90
21883;DHT22;11106;47.864;13.054;2023-02-28T08:18:59;7.30;94.40
21883;DHT22;11106;47.864;13.054;2023-02-28T08:24:00;10.40;77.60
21883;DHT22;11106;47.864;13.054;2023-02-28T08:29:00;8.80;83.40
21883;DHT22;11106;47.864;13.054;2023-02-28T08:59:15;10.20;74.00
21883;DHT22;11106;47.864;13.054;2023-02-28T09:04:16;8.50;82.00
21883;DHT22;11106;47.864;13.054;2023-02-28T09:09:16;9.20;83.70
21883;DHT22;11106;47.864;13.054;2023-02-28T11:05:36;8.90;81.80
21883;DHT22;11106;47.864;13.054;2023-02-28T11:10:37;4.90;94.00
21883;DHT22;11106;47.864;13.054;2023-02-28T11:15:38;4.30;94.50
21883;DHT22;11106;47.864;13.054;2023-02-28T11:20:40;4.20;95.20
21883;DHT22;11106;47.864;13.054;2023-02-28T11:25:51;4.00;95.00
21883;DHT22;11106;47.864;13.054;2023-02-28T11:36:35;4.60;95.10
21883;DHT22;11106;47.864;13.054;2023-02-28T11:47:19;4.30;95.70
21883;DHT22;11106;47.864;13.054;2023-02-28T12:30:02;4.10;96.70
21883;DHT22;11106;47.864;13.054;2023-02-28T12:40:22;4.20;96.50
21883;DHT22;11106;47.864;13.054;2023-02-28T12:45:26;4.30;96.60
21883;DHT22;11106;47.864;13.054;2023-02-28T12:50:28;4.00;96.80
21883;DHT22;11106;47.864;13.054;2023-02-28T13:01:02;3.90;97.30
21883;DHT22;11106;47.864;13.054;2023-02-28T13:06:27;3.90;97.50
21883;DHT22;11106;47.864;13.054;2023-02-28T13:11:39;4.20;97.30
21883;DHT22;11106;47.864;13.054;2023-02-28T13:23:02;4.10;97.30
21883;DHT22;11106;47.864;13.054;2023-02-28T13:27:40;4.20;97.60
21883;DHT22;11106;47.864;13.054;2023-02-28T13:32:42;4.20;97.80
21883;DHT22;11106;47.864;13.054;2023-02-28T13:37:44;4.10;97.90
21883;DHT22;11106;47.864;13.054;2023-02-28T13:42:49;4.10;98.00
21883;DHT22;11106;47.864;13.054;2023-02-28T13:47:59;4.20;98.60
21883;DHT22;11106;47.864;13.054;2023-02-28T14:19:36;4.30;98.20
21883;DHT22;11106;47.864;13.054;2023-02-28T14:35:16;4.30;98.70
21883;DHT22;11106;47.864;13.054;2023-02-28T14:40:28;4.40;99.00
21883;DHT22;11106;47.864;13.054;2023-02-28T14:45:31;4.30;98.90
21883;DHT22;11106;47.864;13.054;2023-02-28T14:50:35;4.30;99.50
21883;DHT22;11106;47.864;13.054;2023-02-28T14:55:36;4.20;99.40
21883;DHT22;11106;47.864;13.054;2023-02-28T15:00:47;4.10;99.70
21883;DHT22;11106;47.864;13.054;2023-02-28T15:05:56;4.10;99.70
21883;DHT22;11106;47.864;13.054;2023-02-28T15:10:59;4.10;99.50
21883;DHT22;11106;47.864;13.054;2023-02-28T15:16:29;4.00;99.90
21883;DHT22;11106;47.864;13.054;2023-02-28T15:21:31;4.00;99.90
21883;DHT22;11106;47.864;13.054;2023-02-28T15:26:34;3.90;99.90
21883;DHT22;11106;47.864;13.054;2023-02-28T15:31:43;3.90;99.90
21883;DHT22;11106;47.864;13.054;2023-02-28T15:36:44;3.70;99.90
21883;DHT22;11106;47.864;13.054;2023-02-28T15:41:45;3.80;99.90
21883;DHT22;11106;47.864;13.054;2023-02-28T15:47:04;3.80;99.90
21883;DHT22;11106;47.864;13.054;2023-02-28T15:52:05;3.80;99.90
21883;DHT22;11106;47.864;13.054;2023-02-28T15:57:07;3.80;99.90
21883;DHT22;11106;47.864;13.054;2023-02-28T16:02:16;3.80;99.90
21883;DHT22;11106;47.864;13.054;2023-02-28T16:07:21;3.80;99.90
21883;DHT22;11106;47.864;13.054;2023-02-28T16:12:29;3.60;99.90
21883;DHT22;11106;47.864;13.054;2023-02-28T16:17:34;3.70;99.90
21883;DHT22;11106;47.864;13.054;2023-02-28T16:22:35;3.60;99.90
21883;DHT22;11106;47.864;13.054;2023-02-28T16:27:37;3.50;99.90
21883;DHT22;11106;47.864;13.054;2023-02-28T16:32:38;3.60;99.90
21883;DHT22;11106;47.864;13.054;2023-02-28T16:37:39;3.50;99.90
21883;DHT22;11106;47.864;13.054;2023-02-28T16:42:41;3.50;99.90
21883;DHT22;11106;47.864;13.054;2023-02-28T16:47:42;3.50;99.90
21883;DHT22;11106;47.864;13.054;2023-02-28T16:52:44;3.50;99.90
21883;DHT22;11106;47.864;13.054;2023-02-28T16:57:49;3.50;99.90
21883;DHT22;11106;47.864;13.054;2023-02-28T17:02:51;3.50;99.90
21883;DHT22;11106;47.864;13.054;2023-02-28T17:07:52;3.50;99.90
21883;DHT22;11106;47.864;13.054;2023-02-28T17:12:53;3.50;99.90
21883;DHT22;11106;47.864;13.054;2023-02-28T17:17:53;3.50;99.90
21883;DHT22;11106;47.864;13.054;2023-02-28T17:22:55;3.50;99.90
21883;DHT22;11106;47.864;13.054;2023-02-28T17:27:56;3.50;99.90
21883;DHT22;11106;47.864;13.054;2023-02-28T17:32:57;3.50;99.90
21883;DHT22;11106;47.864;13.054;2023-02-28T17:37:57;3.40;99.90
21883;DHT22;11106;47.864;13.054;2023-02-28T17:42:58;3.40;99.90
21883;DHT22;11106;47.864;13.054;2023-02-28T17:47:59;3.30;99.90
21883;DHT22;11106;47.864;13.054;2023-02-28T17:53:00;3.30;99.90
21883;DHT22;11106;47.864;13.054;2023-02-28T17:58:01;3.30;99.90
21883;DHT22;11106;47.864;13.054;2023-02-28T18:03:03;3.30;99.90
21883;DHT22;11106;47.864;13.054;2023-02-28T18:08:04;3.20;99.90
21883;DHT22;11106;47.864;13.054;2023-02-28T18:13:04;3.20;99.90
21883;DHT22;11106;47.864;13.054;2023-02-28T21:49:18;3.10;99.90
21883;DHT22;11106;47.864;13.054;2023-02-28T22:49:31;2.40;99.90
